createdAt,value
2022-08-12T00:00:32.950Z,47.72
2022-08-12T00:02:03.738Z,48.22
2022-08-12T00:02:33.018Z,47.22
2022-08-12T00:03:33.003Z,48.13
2022-08-12T00:04:32.935Z,49.42
2022-08-12T00:05:32.910Z,48.32
2022-08-12T00:06:32.904Z,48.52
2022-08-12T00:07:32.915Z,47.63
2022-08-12T00:08:36.851Z,47.33
2022-08-12T00:09:32.876Z,48.43
2022-08-12T00:10:32.881Z,47.83
2022-08-12T00:11:32.858Z,48.14
2022-08-12T00:12:32.847Z,49.22
2022-08-12T00:13:32.879Z,48.94
2022-08-12T00:14:32.867Z,49.35
2022-08-12T00:15:32.823Z,49.85
2022-08-12T00:16:32.810Z,50.24
2022-08-12T00:17:32.805Z,49.85
2022-08-12T00:18:32.860Z,48.35
2022-08-12T00:19:32.789Z,49.15
2022-08-12T00:20:32.801Z,50.35
2022-08-12T00:21:32.772Z,48.14
2022-08-12T00:22:32.762Z,49.25
2022-08-12T00:23:33.546Z,47.65
2022-08-12T00:24:32.765Z,49.85
2022-08-12T00:26:05.723Z,49.15
2022-08-12T00:26:32.722Z,49.05
2022-08-12T00:27:43.837Z,50.04
2022-08-12T00:28:32.706Z,49.44
2022-08-12T00:29:32.700Z,49.74
2022-08-12T00:30:32.739Z,49.35
2022-08-12T00:31:32.684Z,50.35
2022-08-12T00:32:36.199Z,49.44
2022-08-12T00:33:33.985Z,48.14
2022-08-12T00:34:32.653Z,49.65
2022-08-12T00:35:36.503Z,49.65
2022-08-12T00:36:35.922Z,49.65
2022-08-12T00:37:32.628Z,49.65
2022-08-12T00:38:32.623Z,48.67
2022-08-12T00:39:32.637Z,49.27
2022-08-12T00:40:32.606Z,52.67
2022-08-12T00:41:32.636Z,55.87
2022-08-12T00:42:32.588Z,55.77
2022-08-12T00:43:32.597Z,56.39
2022-08-12T00:44:32.571Z,56.99
2022-08-12T00:45:32.566Z,57.72
2022-08-12T00:46:32.549Z,59.42
2022-08-12T00:47:32.588Z,59.35
2022-08-12T00:48:32.529Z,59.88
2022-08-12T00:49:32.524Z,60.28
2022-08-12T00:50:32.516Z,59.88
2022-08-12T00:51:32.509Z,60.81
2022-08-12T00:52:32.495Z,61.21
2022-08-12T00:53:32.519Z,62.14
2022-08-12T00:54:32.486Z,62.04
2022-08-12T00:55:32.470Z,62.84
2022-08-12T00:56:32.462Z,62.04
2022-08-12T00:57:32.460Z,62.67
2022-08-12T00:58:32.441Z,63.37
2022-08-12T00:59:32.438Z,63.47
2022-08-12T01:00:32.432Z,63.78
2022-08-12T01:02:02.350Z,64.37
2022-08-12T01:02:32.438Z,63.90
2022-08-12T01:03:32.403Z,64.31
2022-08-12T01:04:32.445Z,64.40
2022-08-12T01:05:32.381Z,63.50
2022-08-12T01:06:32.374Z,64.51
2022-08-12T01:07:32.365Z,65.34
2022-08-12T01:08:32.356Z,64.94
2022-08-12T01:09:32.349Z,64.64
2022-08-12T01:10:32.920Z,64.64
2022-08-12T01:11:32.329Z,66.35
2022-08-12T01:12:32.323Z,64.54
2022-08-12T01:13:32.335Z,64.74
2022-08-12T01:14:32.304Z,65.94
2022-08-12T01:15:32.292Z,64.84
2022-08-12T01:16:32.279Z,65.54
2022-08-12T01:17:32.288Z,64.84
2022-08-12T01:18:32.268Z,65.84
2022-08-12T01:19:32.263Z,64.64
2022-08-12T01:20:32.246Z,63.73
2022-08-12T01:21:32.239Z,63.53
2022-08-12T01:22:32.226Z,63.84
2022-08-12T01:23:32.307Z,63.33
2022-08-12T01:24:32.259Z,62.63
2022-08-12T01:25:32.201Z,63.67
2022-08-12T01:26:32.200Z,60.42
2022-08-12T01:27:32.193Z,59.92
2022-08-12T01:28:32.171Z,61.33
2022-08-12T01:29:32.954Z,62.23
2022-08-12T01:30:32.153Z,62.03
2022-08-12T01:31:32.146Z,63.33
2022-08-12T01:32:32.136Z,63.03
2022-08-12T01:33:32.132Z,64.54
2022-08-12T01:34:36.225Z,64.74
2022-08-12T01:35:32.119Z,65.74
2022-08-12T01:36:32.143Z,65.04
2022-08-12T01:37:32.090Z,67.45
2022-08-12T01:38:32.078Z,67.28
2022-08-12T01:39:32.194Z,66.78
2022-08-12T01:40:37.399Z,68.99
2022-08-12T01:41:32.086Z,67.08
2022-08-12T01:42:32.042Z,64.77
2022-08-12T01:43:32.036Z,66.98
2022-08-12T01:44:32.051Z,65.57
2022-08-12T01:45:43.077Z,67.18
2022-08-12T01:46:32.051Z,65.17
2022-08-12T01:47:31.999Z,66.67
2022-08-12T01:48:31.984Z,66.91
2022-08-12T01:49:32.010Z,66.08
2022-08-12T01:50:31.971Z,66.41
2022-08-12T01:52:15.508Z,67.21
2022-08-12T01:52:31.965Z,67.24
2022-08-12T01:53:31.939Z,66.47
2022-08-12T01:54:31.929Z,67.18
2022-08-12T01:55:31.948Z,66.71
2022-08-12T01:56:31.939Z,67.21
2022-08-12T01:57:57.821Z,65.59
2022-08-12T01:58:32.032Z,65.42
2022-08-12T01:59:31.883Z,64.86
2022-08-12T02:00:36.061Z,65.76
2022-08-12T02:01:31.913Z,66.39
2022-08-12T02:02:31.953Z,67.50
2022-08-12T02:03:31.844Z,66.90
2022-08-12T02:04:31.833Z,66.90
2022-08-12T02:05:33.300Z,67.80
2022-08-12T02:06:31.813Z,68.01
2022-08-12T02:07:31.809Z,67.88
2022-08-12T02:08:31.831Z,67.07
2022-08-12T02:09:31.807Z,69.18
2022-08-12T02:10:51.190Z,69.18
2022-08-12T02:11:31.774Z,69.09
2022-08-12T02:12:31.757Z,68.85
2022-08-12T02:13:48.242Z,67.64
2022-08-12T02:14:31.749Z,68.55
2022-08-12T02:15:32.557Z,68.95
2022-08-12T02:16:31.718Z,70.36
2022-08-12T02:17:54.757Z,69.49
2022-08-12T02:18:31.700Z,68.95
2022-08-12T02:19:31.692Z,71.60
2022-08-12T02:20:35.129Z,72.27
2022-08-12T02:21:31.671Z,73.18
2022-08-12T02:22:31.693Z,72.78
2022-08-12T02:23:31.665Z,72.88
2022-08-12T02:24:31.668Z,72.64
2022-08-12T02:25:31.630Z,71.03
2022-08-12T02:26:31.622Z,71.53
2022-08-12T02:27:31.619Z,72.64
2022-08-12T02:28:31.601Z,72.71
2022-08-12T02:29:31.621Z,73.52
2022-08-12T02:30:38.371Z,73.92
2022-08-12T02:31:31.569Z,73.82
2022-08-12T02:32:31.601Z,73.82
2022-08-12T02:33:31.553Z,73.72
2022-08-12T02:34:31.543Z,73.32
2022-08-12T02:35:31.565Z,72.61
2022-08-12T02:36:31.520Z,72.91
2022-08-12T02:37:31.515Z,74.02
2022-08-12T02:38:31.502Z,73.72
2022-08-12T02:39:31.513Z,73.72
2022-08-12T02:40:31.508Z,74.05
2022-08-12T02:41:31.498Z,73.75
2022-08-12T02:42:31.496Z,73.45
2022-08-12T02:43:31.453Z,73.45
2022-08-12T02:44:31.450Z,73.35
2022-08-12T02:45:31.428Z,74.26
2022-08-12T02:46:31.419Z,73.45
2022-08-12T02:47:59.360Z,73.65
2022-08-12T02:48:31.401Z,73.85
2022-08-12T02:49:31.389Z,74.16
2022-08-12T02:50:31.384Z,74.26
2022-08-12T02:51:31.373Z,74.36
2022-08-12T02:52:31.419Z,74.36
2022-08-12T02:53:31.345Z,74.90
2022-08-12T02:54:31.346Z,74.19
2022-08-12T02:55:34.771Z,74.40
2022-08-12T02:56:31.377Z,74.69
2022-08-12T02:57:31.315Z,74.36
2022-08-12T02:58:33.301Z,75.16
2022-08-12T02:59:31.283Z,75.87
2022-08-12T03:00:31.280Z,76.78
2022-08-12T03:01:31.330Z,76.82
2022-08-12T03:02:31.370Z,77.62
2022-08-12T03:03:31.248Z,76.51
2022-08-12T03:04:31.235Z,76.35
2022-08-12T03:05:31.222Z,76.45
2022-08-12T03:06:31.216Z,76.59
2022-08-12T03:07:49.354Z,76.95
2022-08-12T03:08:32.150Z,76.48
2022-08-12T03:09:43.084Z,77.19
2022-08-12T03:10:37.595Z,77.19
2022-08-12T03:11:31.159Z,77.60
2022-08-12T03:12:34.082Z,77.39
2022-08-12T03:13:31.143Z,76.39
2022-08-12T03:14:31.133Z,76.45
2022-08-12T03:15:31.140Z,76.08
2022-08-12T03:16:33.186Z,75.98
2022-08-12T03:17:31.099Z,76.08
2022-08-12T03:18:31.097Z,76.18
2022-08-12T03:19:31.078Z,77.26
2022-08-12T03:20:31.070Z,76.89
2022-08-12T03:21:57.918Z,77.50
2022-08-12T03:22:31.147Z,77.50
2022-08-12T03:23:31.455Z,77.43
2022-08-12T03:24:31.033Z,77.43
2022-08-12T03:25:31.014Z,77.47
2022-08-12T03:26:31.006Z,77.37
2022-08-12T03:27:30.994Z,77.67
2022-08-12T03:28:31.144Z,77.47
2022-08-12T03:29:30.972Z,77.43
2022-08-12T03:30:30.966Z,76.93
2022-08-12T03:31:30.953Z,76.22
2022-08-12T03:32:35.820Z,76.22
2022-08-12T03:33:30.934Z,75.88
2022-08-12T03:34:30.931Z,76.28
2022-08-12T03:35:40.993Z,76.28
2022-08-12T03:36:30.906Z,76.89
2022-08-12T03:37:30.888Z,76.39
2022-08-12T03:38:30.894Z,76.39
2022-08-12T03:39:36.434Z,75.88
2022-08-12T03:40:30.869Z,76.69
2022-08-12T03:41:30.847Z,77.73
2022-08-12T03:42:30.876Z,77.50
2022-08-12T03:43:30.826Z,78.24
2022-08-12T03:44:30.853Z,77.80
2022-08-12T03:45:30.803Z,77.60
2022-08-12T03:46:30.800Z,76.59
2022-08-12T03:47:30.793Z,76.75
2022-08-12T03:48:30.778Z,75.98
2022-08-12T03:49:30.762Z,76.15
2022-08-12T03:50:30.756Z,75.95
2022-08-12T03:51:30.772Z,75.34
2022-08-12T03:52:30.796Z,75.24
2022-08-12T03:53:30.718Z,75.34
2022-08-12T03:54:30.709Z,75.44
2022-08-12T03:55:30.728Z,75.54
2022-08-12T03:56:30.690Z,76.28
2022-08-12T03:57:30.744Z,77.46
2022-08-12T03:58:30.667Z,76.95
2022-08-12T03:59:30.661Z,76.55
2022-08-12T04:00:30.647Z,77.60
2022-08-12T04:01:30.751Z,77.60
2022-08-12T04:02:30.670Z,77.29
2022-08-12T04:03:30.642Z,77.39
2022-08-12T04:04:30.604Z,77.50
2022-08-12T04:05:54.503Z,77.39
2022-08-12T04:06:34.409Z,78.20
2022-08-12T04:07:30.569Z,79.11
2022-08-12T04:08:30.598Z,79.72
2022-08-12T04:09:30.548Z,79.46
2022-08-12T04:10:30.540Z,80.87
2022-08-12T04:11:32.271Z,80.57
2022-08-12T04:12:32.832Z,80.06
2022-08-12T04:13:30.505Z,79.96
2022-08-12T04:14:30.493Z,80.16
2022-08-12T04:15:30.484Z,79.46
2022-08-12T04:16:30.473Z,80.10
2022-08-12T04:17:30.490Z,80.40
2022-08-12T04:18:30.455Z,81.41
2022-08-12T04:19:30.439Z,80.91
2022-08-12T04:20:30.428Z,80.40
2022-08-12T04:21:30.417Z,78.99
2022-08-12T04:22:30.898Z,78.68
2022-08-12T04:23:30.399Z,77.33
2022-08-12T04:24:30.421Z,77.33
2022-08-12T04:25:30.376Z,77.13
2022-08-12T04:26:30.363Z,76.93
2022-08-12T04:27:30.370Z,76.48
2022-08-12T04:28:30.371Z,75.37
2022-08-12T04:30:30.377Z,75.17
2022-08-12T04:30:33.639Z,74.84
2022-08-12T04:31:30.308Z,75.37
2022-08-12T04:32:30.299Z,76.28
2022-08-12T04:33:30.290Z,75.54
2022-08-12T04:34:30.279Z,76.25
2022-08-12T04:35:30.270Z,76.55
2022-08-12T04:36:30.253Z,76.75
2022-08-12T04:37:30.256Z,78.00
2022-08-12T04:38:30.234Z,78.61
2022-08-12T04:39:30.479Z,79.01
2022-08-12T04:40:30.280Z,79.41
2022-08-12T04:41:30.197Z,79.11
2022-08-12T04:42:30.188Z,79.52
2022-08-12T04:43:59.747Z,79.32
2022-08-12T04:44:30.165Z,79.62
2022-08-12T04:45:30.154Z,80.57
2022-08-12T04:46:33.651Z,81.07
2022-08-12T04:47:30.130Z,81.82
2022-08-12T04:48:30.119Z,81.55
2022-08-12T04:49:30.104Z,81.31
2022-08-12T04:50:36.158Z,81.25
2022-08-12T04:51:30.085Z,81.45
2022-08-12T04:52:34.731Z,80.94
2022-08-12T04:53:30.061Z,80.84
2022-08-12T04:54:30.059Z,81.01
2022-08-12T04:55:30.046Z,81.11
2022-08-12T04:56:30.037Z,81.62
2022-08-12T04:57:30.021Z,80.04
2022-08-12T04:58:30.198Z,79.63
2022-08-12T04:59:30.001Z,79.53
2022-08-12T05:00:30.017Z,79.08
2022-08-12T05:01:29.974Z,79.08
2022-08-12T05:02:29.987Z,79.46
2022-08-12T05:03:46.629Z,79.86
2022-08-12T05:04:29.997Z,78.14
2022-08-12T05:05:35.237Z,78.95
2022-08-12T05:06:29.920Z,79.25
2022-08-12T05:07:29.912Z,77.67
2022-08-12T05:08:29.917Z,76.42
2022-08-12T05:09:55.260Z,76.82
2022-08-12T05:10:33.634Z,76.08
2022-08-12T05:11:29.863Z,77.19
2022-08-12T05:12:29.865Z,77.09
2022-08-12T05:13:29.843Z,76.59
2022-08-12T05:14:32.392Z,76.99
2022-08-12T05:15:29.829Z,79.32
2022-08-12T05:16:32.563Z,79.92
2022-08-12T05:17:29.800Z,80.63
2022-08-12T05:18:29.790Z,80.12
2022-08-12T05:19:29.778Z,79.32
2022-08-12T05:20:29.872Z,77.39
2022-08-12T05:21:29.754Z,77.19
2022-08-12T05:22:29.747Z,76.45
2022-08-12T05:23:29.737Z,77.39
2022-08-12T05:24:29.726Z,77.19
2022-08-12T05:25:29.741Z,77.36
2022-08-12T05:26:29.727Z,77.36
2022-08-12T05:27:29.692Z,77.76
2022-08-12T05:28:29.679Z,77.15
2022-08-12T05:30:06.982Z,77.26
2022-08-12T05:30:29.668Z,77.86
2022-08-12T05:31:47.713Z,77.97
2022-08-12T05:32:29.640Z,78.17
2022-08-12T05:33:29.626Z,78.88
2022-08-12T05:34:29.620Z,78.77
2022-08-12T05:35:29.610Z,79.68
2022-08-12T05:36:29.610Z,79.79
2022-08-12T05:37:29.582Z,78.77
2022-08-12T05:38:29.579Z,79.68
2022-08-12T05:39:29.572Z,79.34
2022-08-12T05:40:29.575Z,80.05
2022-08-12T05:41:29.535Z,78.90
2022-08-12T05:42:32.486Z,78.59
2022-08-12T05:43:29.530Z,79.21
2022-08-12T05:44:29.507Z,79.30
2022-08-12T05:45:29.523Z,79.30
2022-08-12T05:46:29.537Z,79.36
2022-08-12T05:47:38.463Z,79.87
2022-08-12T05:48:29.474Z,79.77
2022-08-12T05:49:29.451Z,79.67
2022-08-12T05:50:29.444Z,79.57
2022-08-12T05:51:38.605Z,79.67
2022-08-12T05:52:29.421Z,79.10
2022-08-12T05:53:29.409Z,78.76
2022-08-12T05:54:54.386Z,78.26
2022-08-12T05:55:31.329Z,77.95
2022-08-12T05:56:29.405Z,78.46
2022-08-12T05:57:29.369Z,77.25
2022-08-12T05:58:29.358Z,77.25
2022-08-12T05:59:29.362Z,77.15
2022-08-12T06:00:29.435Z,78.06
2022-08-12T06:02:10.637Z,78.92
2022-08-12T06:02:29.317Z,79.53
2022-08-12T06:03:29.336Z,79.23
2022-08-12T06:04:29.295Z,79.60
2022-08-12T06:05:29.307Z,79.09
2022-08-12T06:06:29.776Z,78.08
2022-08-12T06:08:00.003Z,76.57
2022-08-12T06:08:29.251Z,76.47
2022-08-12T06:09:29.239Z,76.07
2022-08-12T06:10:32.388Z,75.93
2022-08-12T06:11:29.249Z,75.87
2022-08-12T06:12:29.209Z,75.13
2022-08-12T06:13:54.241Z,74.52
2022-08-12T06:14:29.256Z,74.86
2022-08-12T06:15:29.216Z,75.06
2022-08-12T06:16:29.169Z,75.46
2022-08-12T06:17:29.186Z,75.13
2022-08-12T06:18:29.946Z,74.02
2022-08-12T06:20:26.015Z,73.25
2022-08-12T06:20:34.367Z,74.12
2022-08-12T06:21:29.143Z,73.52
2022-08-12T06:22:29.140Z,72.51
2022-08-12T06:23:29.105Z,72.91
2022-08-12T06:24:29.089Z,73.52
2022-08-12T06:25:29.118Z,74.32
2022-08-12T06:26:29.094Z,73.18
2022-08-12T06:27:29.061Z,73.28
2022-08-12T06:28:29.044Z,73.38
2022-08-12T06:30:07.391Z,72.97
2022-08-12T06:30:36.828Z,73.38
2022-08-12T06:31:29.043Z,73.28
2022-08-12T06:32:29.007Z,73.44
2022-08-12T06:33:59.817Z,72.27
2022-08-12T06:35:27.249Z,73.35
2022-08-12T06:35:48.932Z,73.04
2022-08-12T06:36:29.637Z,73.35
2022-08-12T06:37:28.960Z,73.44
2022-08-12T06:38:28.970Z,74.05
2022-08-12T06:39:29.042Z,74.15
2022-08-12T06:40:28.927Z,74.41
2022-08-12T06:41:28.913Z,74.82
2022-08-12T06:42:32.550Z,73.71
2022-08-12T06:43:29.284Z,73.71
2022-08-12T06:44:28.885Z,74.21
2022-08-12T06:45:45.212Z,73.81
2022-08-12T06:46:28.879Z,74.52
2022-08-12T06:47:28.884Z,74.72
2022-08-12T06:48:28.849Z,73.71
2022-08-12T06:49:28.837Z,74.41
2022-08-12T06:50:28.826Z,74.11
2022-08-12T06:51:28.817Z,74.62
2022-08-12T06:52:28.804Z,73.81
2022-08-12T06:53:28.800Z,72.67
2022-08-12T06:54:31.296Z,73.47
2022-08-12T06:55:28.779Z,74.48
2022-08-12T06:56:59.535Z,73.18
2022-08-12T06:58:06.071Z,73.58
2022-08-12T06:58:28.762Z,74.18
2022-08-12T06:59:28.738Z,74.95
2022-08-12T07:00:32.959Z,74.44
2022-08-12T07:01:28.821Z,73.34
2022-08-12T07:02:29.416Z,72.53
2022-08-12T07:03:28.718Z,73.44
2022-08-12T07:04:37.463Z,75.15
2022-08-12T07:05:28.784Z,74.95
2022-08-12T07:06:28.804Z,73.94
2022-08-12T07:07:28.714Z,70.83
2022-08-12T07:08:28.665Z,72.53
2022-08-12T07:10:01.582Z,75.95
2022-08-12T07:10:28.677Z,75.25
2022-08-12T07:11:28.698Z,74.01
2022-08-12T07:12:28.864Z,73.61
2022-08-12T07:13:28.601Z,72.13
2022-08-12T07:14:28.591Z,72.71
2022-08-12T07:15:28.613Z,73.50
2022-08-12T07:16:28.572Z,72.90
2022-08-12T07:17:28.565Z,70.70
2022-08-12T07:18:28.554Z,72.67
2022-08-12T07:19:40.539Z,72.60
2022-08-12T07:20:51.173Z,72.06
2022-08-12T07:21:59.630Z,72.67
2022-08-12T07:22:28.515Z,72.37
2022-08-12T07:23:28.504Z,72.53
2022-08-12T07:24:28.498Z,74.64
2022-08-12T07:25:28.488Z,73.33
2022-08-12T07:26:28.534Z,72.53
2022-08-12T07:27:28.467Z,71.23
2022-08-12T07:28:28.456Z,71.23
2022-08-12T07:29:58.182Z,72.03
2022-08-12T07:30:28.439Z,72.33
2022-08-12T07:31:28.435Z,70.03
2022-08-12T07:32:29.412Z,67.52
2022-08-12T07:33:28.411Z,68.89
2022-08-12T07:34:28.402Z,72.20
2022-08-12T07:35:28.393Z,71.59
2022-08-12T07:36:28.383Z,71.59
2022-08-12T07:37:28.391Z,69.69
2022-08-12T07:38:28.843Z,69.79
2022-08-12T07:39:28.419Z,70.36
2022-08-12T07:40:28.348Z,69.46
2022-08-12T07:41:28.341Z,68.55
2022-08-12T07:42:28.361Z,69.16
2022-08-12T07:43:28.365Z,69.02
2022-08-12T07:44:28.306Z,68.82
2022-08-12T07:45:28.313Z,69.32
2022-08-12T07:46:28.288Z,67.05
2022-08-12T07:47:28.283Z,68.35
2022-08-12T07:48:28.271Z,70.73
2022-08-12T07:49:28.293Z,68.76
2022-08-12T07:50:28.257Z,69.12
2022-08-12T07:51:28.265Z,68.92
2022-08-12T07:52:28.236Z,67.12
2022-08-12T07:53:28.228Z,66.42
2022-08-12T07:54:28.222Z,65.22
2022-08-12T07:55:28.249Z,66.09
2022-08-12T07:56:28.200Z,65.09
2022-08-12T07:57:28.194Z,65.09
2022-08-12T07:58:28.183Z,64.78
2022-08-12T07:59:28.174Z,64.65
2022-08-12T08:00:28.165Z,65.05
2022-08-12T08:01:28.343Z,65.25
2022-08-12T08:02:28.151Z,63.95
2022-08-12T08:03:28.143Z,64.36
2022-08-12T08:04:28.129Z,65.72
2022-08-12T08:05:28.119Z,62.95
2022-08-12T08:06:28.108Z,64.32
2022-08-12T08:07:28.130Z,64.22
2022-08-12T08:08:28.091Z,63.53
2022-08-12T08:09:28.086Z,64.22
2022-08-12T08:10:28.073Z,63.53
2022-08-12T08:11:28.072Z,64.09
2022-08-12T08:12:28.108Z,61.79
2022-08-12T08:13:28.050Z,63.19
2022-08-12T08:14:28.037Z,59.30
2022-08-12T08:15:51.284Z,62.89
2022-08-12T08:16:28.020Z,59.79
2022-08-12T08:17:28.012Z,61.96
2022-08-12T08:18:28.023Z,59.69
2022-08-12T08:19:27.998Z,59.06
2022-08-12T08:20:27.985Z,59.97
2022-08-12T08:21:27.989Z,60.27
2022-08-12T08:22:41.785Z,57.87
2022-08-12T08:23:29.420Z,58.37
2022-08-12T08:24:27.961Z,57.54
2022-08-12T08:25:35.984Z,57.54
2022-08-12T08:26:27.936Z,57.64
2022-08-12T08:27:27.935Z,57.14
2022-08-12T08:28:27.919Z,56.64
2022-08-12T08:29:27.914Z,58.14
2022-08-12T08:30:27.899Z,55.74
2022-08-12T08:31:27.895Z,55.41
2022-08-12T08:32:27.885Z,57.31
2022-08-12T08:34:05.041Z,56.81
2022-08-12T08:34:52.894Z,57.31
2022-08-12T08:35:28.135Z,56.61
2022-08-12T08:36:27.849Z,56.61
2022-08-12T08:37:32.851Z,57.51
2022-08-12T08:38:32.124Z,57.28
2022-08-12T08:39:27.896Z,57.48
2022-08-12T08:40:27.819Z,57.58
2022-08-12T08:42:13.895Z,57.48
2022-08-12T08:42:27.802Z,55.99
2022-08-12T08:43:27.799Z,57.09
2022-08-12T08:44:27.785Z,58.15
2022-08-12T08:45:27.782Z,59.55
2022-08-12T08:46:27.799Z,58.65
2022-08-12T08:47:27.771Z,57.56
2022-08-12T08:48:27.757Z,58.25
2022-08-12T08:49:27.751Z,58.55
2022-08-12T08:50:27.742Z,58.06
2022-08-12T08:51:27.836Z,58.06
2022-08-12T08:52:39.143Z,56.43
2022-08-12T08:53:27.719Z,57.53
2022-08-12T08:54:27.708Z,58.23
2022-08-12T08:55:47.949Z,56.63
2022-08-12T08:56:27.692Z,54.01
2022-08-12T08:57:43.655Z,55.91
2022-08-12T08:58:27.676Z,56.10
2022-08-12T08:59:27.670Z,53.52
2022-08-12T09:00:27.670Z,52.62
2022-08-12T09:01:37.810Z,53.91
2022-08-12T09:02:27.674Z,55.61
2022-08-12T09:05:11.235Z,55.21
2022-08-12T09:05:27.634Z,54.11
2022-08-12T09:06:37.414Z,53.89
2022-08-12T09:07:43.792Z,54.08
2022-08-12T09:08:27.938Z,55.38
2022-08-12T09:09:34.162Z,54.79
2022-08-12T09:10:31.153Z,54.08
2022-08-12T09:12:27.757Z,52.49
2022-08-12T09:13:29.166Z,54.08
2022-08-12T09:14:29.228Z,52.86
2022-08-12T09:16:27.545Z,51.27
2022-08-12T09:17:27.540Z,51.87
2022-08-12T09:19:28.044Z,53.66
2022-08-12T09:20:29.349Z,53.76
2022-08-12T09:21:27.510Z,53.06
2022-08-12T09:22:30.445Z,51.57
2022-08-12T09:23:58.522Z,52.86
2022-08-12T09:24:27.868Z,51.57
2022-08-12T09:25:33.342Z,51.97
2022-08-12T09:26:28.321Z,51.97
2022-08-12T09:27:30.786Z,52.27
2022-08-12T09:28:31.331Z,51.84
2022-08-12T09:30:11.235Z,49.76
2022-08-12T09:30:42.048Z,51.05
2022-08-12T09:32:06.297Z,50.05
2022-08-12T09:32:55.653Z,49.13
2022-08-12T09:34:27.803Z,50.33
2022-08-12T09:34:33.568Z,50.01
2022-08-12T09:35:28.463Z,51.10
2022-08-12T09:36:31.200Z,51.40
2022-08-12T09:37:27.407Z,50.40
2022-08-12T09:38:29.963Z,50.90
2022-08-12T09:40:02.394Z,51.40
2022-08-12T09:41:01.321Z,50.80
2022-08-12T09:42:08.911Z,51.57
2022-08-12T09:42:41.027Z,50.28
2022-08-12T09:43:27.930Z,51.07
2022-08-12T09:44:39.043Z,50.18
2022-08-12T09:46:19.569Z,50.05
2022-08-12T09:46:27.423Z,50.16
2022-08-12T09:47:29.308Z,49.54
2022-08-12T09:48:27.343Z,49.44
2022-08-12T09:49:27.325Z,47.75
2022-08-12T09:50:27.318Z,49.84
2022-08-12T09:51:37.646Z,47.73
2022-08-12T09:52:32.040Z,48.13
2022-08-12T09:53:36.169Z,45.45
2022-08-12T09:54:34.168Z,44.93
2022-08-12T09:56:05.544Z,43.71
2022-08-12T09:56:59.460Z,44.71
2022-08-12T09:58:45.163Z,44.11
2022-08-12T09:58:56.892Z,43.79
2022-08-12T10:00:16.222Z,41.14
2022-08-12T10:00:28.895Z,42.23
2022-08-12T10:01:35.282Z,43.22
2022-08-12T10:02:44.333Z,43.42
2022-08-12T10:03:31.845Z,41.14
2022-08-12T10:04:27.416Z,41.14
2022-08-12T10:06:20.045Z,42.21
2022-08-12T10:06:32.316Z,41.12
2022-08-12T10:07:28.676Z,40.74
2022-08-12T10:08:27.304Z,37.55
2022-08-12T10:09:28.701Z,38.05
2022-08-12T10:10:30.214Z,38.42
2022-08-12T10:11:27.260Z,40.41
2022-08-12T10:12:31.157Z,40.41
2022-08-12T10:13:35.709Z,40.98
2022-08-12T10:14:36.761Z,40.29
2022-08-12T10:16:02.925Z,39.69
2022-08-12T10:16:27.380Z,40.66
2022-08-12T10:17:27.246Z,40.64
2022-08-12T10:18:27.221Z,40.64
2022-08-12T10:19:36.502Z,39.85
2022-08-12T10:20:27.220Z,39.24
2022-08-12T10:21:36.493Z,40.23
2022-08-12T10:22:40.241Z,39.43
2022-08-12T10:23:40.169Z,44.31
2022-08-12T10:24:27.208Z,40.34
2022-08-12T10:26:35.367Z,40.84
2022-08-12T10:26:37.228Z,40.74
2022-08-12T10:27:28.042Z,40.34
2022-08-12T10:28:27.203Z,41.04
2022-08-12T10:30:37.150Z,41.14
2022-08-12T10:30:41.842Z,40.96
2022-08-12T10:31:27.215Z,40.56
2022-08-12T10:32:44.009Z,41.25
2022-08-12T10:33:31.001Z,42.05
2022-08-12T10:34:27.337Z,42.84
2022-08-12T10:35:27.193Z,42.94
2022-08-12T10:36:40.218Z,42.05
2022-08-12T10:38:33.496Z,42.66
2022-08-12T10:38:39.191Z,44.15
2022-08-12T10:40:00.655Z,41.38
2022-08-12T10:40:32.290Z,41.97
2022-08-12T10:41:58.731Z,41.18
2022-08-12T10:42:45.917Z,40.70
2022-08-12T10:43:27.173Z,41.79
2022-08-12T10:44:27.165Z,42.29
2022-08-12T10:45:27.162Z,41.99
2022-08-12T10:46:31.314Z,40.60
2022-08-12T10:48:15.920Z,41.10
2022-08-12T10:48:33.945Z,41.20
2022-08-12T10:50:03.422Z,42.49
2022-08-12T10:50:29.514Z,41.12
2022-08-12T10:52:04.740Z,42.41
2022-08-12T10:52:33.987Z,43.28
2022-08-12T10:53:46.135Z,40.82
2022-08-12T10:54:27.160Z,39.22
2022-08-12T10:55:27.124Z,37.81
2022-08-12T10:56:27.121Z,37.62
2022-08-12T10:58:13.608Z,38.78
2022-08-12T10:58:30.782Z,37.89
2022-08-12T10:59:58.024Z,36.71
2022-08-12T11:00:30.565Z,37.70
2022-08-12T11:04:16.651Z,38.70
2022-08-12T11:04:24.604Z,40.78
2022-08-12T11:04:26.118Z,39.29
2022-08-12T11:04:41.492Z,40.78
2022-08-12T11:07:03.760Z,40.78
2022-08-12T11:07:07.719Z,42.46
2022-08-12T11:08:34.618Z,40.88
2022-08-12T11:08:37.714Z,40.98
2022-08-12T11:09:55.687Z,40.88
2022-08-12T11:10:27.108Z,40.80
2022-08-12T11:12:08.482Z,40.70
2022-08-12T11:12:56.222Z,40.90
2022-08-12T11:13:48.308Z,40.60
2022-08-12T11:14:50.136Z,40.01
2022-08-12T11:16:02.477Z,39.81
2022-08-12T11:16:27.030Z,38.70
2022-08-12T11:17:53.403Z,40.09
2022-08-12T11:18:27.011Z,40.88
2022-08-12T11:19:27.005Z,39.89
2022-08-12T11:20:28.963Z,41.46
2022-08-12T11:21:51.147Z,40.96
2022-08-12T11:22:26.995Z,39.99
2022-08-12T11:23:36.628Z,42.14
2022-08-12T11:24:32.038Z,41.67
2022-08-12T11:25:56.763Z,42.94
2022-08-12T11:26:26.993Z,41.65
2022-08-12T11:27:29.457Z,40.56
2022-08-12T11:28:33.277Z,41.63
2022-08-12T11:29:26.970Z,39.73
2022-08-12T11:30:31.550Z,40.72
2022-08-12T11:31:26.960Z,38.33
2022-08-12T11:32:26.961Z,37.82
2022-08-12T11:34:06.099Z,36.12
2022-08-12T11:34:53.341Z,35.24
2022-08-12T11:35:26.953Z,34.13
2022-08-12T11:36:26.895Z,34.92
2022-08-12T11:37:27.014Z,35.81
2022-08-12T11:38:26.882Z,34.92
2022-08-12T11:40:26.987Z,34.72
2022-08-12T11:41:31.435Z,34.63
2022-08-12T11:42:32.535Z,34.92
2022-08-12T11:43:26.863Z,34.82
2022-08-12T11:44:36.966Z,34.92
2022-08-12T11:45:26.872Z,36.12
2022-08-12T11:46:26.888Z,36.32
2022-08-12T11:47:26.850Z,35.25
2022-08-12T11:48:27.330Z,35.71
2022-08-12T11:49:32.011Z,35.20
2022-08-12T11:50:32.207Z,34.97
2022-08-12T11:51:26.832Z,33.26
2022-08-12T11:52:36.653Z,33.03
2022-08-12T11:53:57.284Z,32.12
2022-08-12T11:54:29.750Z,32.01
2022-08-12T11:55:27.537Z,32.78
2022-08-12T11:56:38.530Z,32.09
2022-08-12T11:58:10.064Z,31.20
2022-08-12T11:59:11.337Z,30.11
2022-08-12T12:02:02.603Z,30.10
2022-08-12T12:02:26.826Z,31.50
2022-08-12T12:03:43.901Z,30.82
2022-08-12T12:04:29.503Z,30.04
2022-08-12T12:05:28.340Z,31.51
2022-08-12T12:06:26.797Z,30.74
2022-08-12T12:08:36.135Z,31.35
2022-08-12T12:08:38.901Z,31.45
2022-08-12T12:09:26.827Z,31.54
2022-08-12T12:10:26.815Z,33.23
2022-08-12T12:11:26.786Z,33.64
2022-08-12T12:12:26.809Z,34.75
2022-08-12T12:14:07.601Z,34.97
2022-08-12T12:14:37.847Z,35.07
2022-08-12T12:15:41.309Z,34.97
2022-08-12T12:16:26.780Z,34.58
2022-08-12T12:17:26.777Z,34.97
2022-08-12T12:18:31.009Z,33.01
2022-08-12T12:19:26.835Z,33.13
2022-08-12T12:20:30.508Z,32.93
2022-08-12T12:21:48.308Z,33.13
2022-08-12T12:22:30.940Z,33.82
2022-08-12T12:23:28.992Z,34.23
2022-08-12T12:24:26.759Z,34.23
2022-08-12T12:26:07.081Z,34.92
2022-08-12T12:26:35.076Z,35.22
2022-08-12T12:27:37.605Z,35.63
2022-08-12T12:28:36.832Z,36.22
2022-08-12T12:30:13.228Z,35.83
2022-08-12T12:30:30.235Z,36.54
2022-08-12T12:32:09.940Z,35.24
2022-08-12T12:32:53.102Z,34.74
2022-08-12T12:33:26.734Z,35.53
2022-08-12T12:34:30.180Z,35.14
2022-08-12T12:36:18.158Z,33.65
2022-08-12T12:36:30.117Z,35.14
2022-08-12T12:37:59.082Z,36.04
2022-08-12T12:38:26.722Z,36.82
2022-08-12T12:39:26.753Z,36.32
2022-08-12T12:40:29.797Z,35.73
2022-08-12T12:42:43.311Z,36.02
2022-08-12T12:42:47.638Z,36.02
2022-08-12T12:43:28.837Z,37.11
2022-08-12T12:44:38.696Z,36.71
2022-08-12T12:45:26.693Z,37.01
2022-08-12T12:46:26.738Z,36.42
2022-08-12T12:47:29.251Z,35.83
2022-08-12T12:48:26.677Z,36.52
2022-08-12T12:49:27.622Z,35.83
2022-08-12T12:50:35.560Z,37.51
2022-08-12T12:52:17.262Z,37.21
2022-08-12T12:52:26.948Z,37.49
2022-08-12T12:54:07.666Z,36.60
2022-08-12T12:54:29.069Z,36.50
2022-08-12T12:55:26.648Z,36.60
2022-08-12T12:56:33.802Z,36.00
2022-08-12T12:57:59.254Z,34.74
2022-08-12T12:58:26.638Z,36.11
2022-08-12T12:59:55.079Z,35.93